首页
METAR-TAF:

METAR-TAF

机场 :

乌塔保国际机场

芭達亞-Rayong, 泰国

纬度: 12-38N, 经度: 101-21E, 海拔: 3米

当前天气观测

该预报发布于30分钟前的23:30 UTC
风速2节,风向多变
温度 25°C
湿度 89%
气压 1013 hPa
能見度: 9000
少量云层高于2000英尺

METAR: VTBU 252330Z VRB02KT 9000 FEW020 25/23 Q1013 NOSIG

时间: 07:00 (00:00 UTC)

预报

该预报发布于1小时和0分钟前的23:00 UTC
预报有效从26日的 00点(UTC)到 26日的 24点(UTC)
风速3节,风向
能见度10公里或以上
少量云层高于2000英尺
成为
从 26日的 02点(UTC)到 26日的 04点(UTC)
风速10节,风向
成为
从 26日的 18点(UTC)到 26日的 20点(UTC)
风速3节,风向

TAF: VTBU 252300Z 2600/2624 36003KT 9999 FEW020 BECMG 2602/2604 18010KT BECMG 2618/2620 36003KT

超过4000个机场的气象观测和天气预报(METAR&TAF报告)。

可查询的气象台以黄色和红色小点在地图上表示。

将鼠标移到小点上方,可查看气象台名称。

然后点击查看天气观测和预报。

如需切换地图:点击带黑十字的绿色按钮放大地图;点击带横线的绿色按钮缩小地图;或者点击绿色箭头查看邻近地区的地图。


METAR-TAF: